createdAt,value
2022-11-22T00:00:20.024Z,24.52
2022-11-22T00:02:46.839Z,24.02
2022-11-22T00:05:13.545Z,26.95
2022-11-22T00:07:40.380Z,27.58
2022-11-22T00:10:08.993Z,27.90
2022-11-22T00:12:35.539Z,30.45
2022-11-22T00:15:01.881Z,30.92
2022-11-22T00:17:28.270Z,32.53
2022-11-22T00:19:54.644Z,35.22
2022-11-22T00:22:20.961Z,34.05
2022-11-22T00:24:47.496Z,35.22
2022-11-22T00:27:14.198Z,34.22
2022-11-22T00:29:40.563Z,38.13
2022-11-22T00:32:06.890Z,35.60
2022-11-22T00:34:33.202Z,35.17
2022-11-22T00:36:59.572Z,32.85
2022-11-22T00:39:25.958Z,37.67
2022-11-22T00:41:52.415Z,36.75
2022-11-22T00:44:18.766Z,36.85
2022-11-22T00:46:45.149Z,34.95
2022-11-22T00:49:11.551Z,37.92
2022-11-22T00:51:37.955Z,36.25
2022-11-22T00:54:04.549Z,38.40
2022-11-22T00:56:32.002Z,33.90
2022-11-22T00:58:58.441Z,37.65
2022-11-22T01:01:25.443Z,33.25
2022-11-22T01:03:51.850Z,33.67
2022-11-22T01:06:18.293Z,34.33
2022-11-22T01:08:44.737Z,30.88
2022-11-22T01:11:11.790Z,31.73
2022-11-22T01:13:38.262Z,29.40
2022-11-22T01:16:08.033Z,29.92
2022-11-22T01:18:35.197Z,27.92
2022-11-22T01:21:02.235Z,29.65
2022-11-22T01:23:28.593Z,28.55
2022-11-22T01:25:54.979Z,30.10
2022-11-22T01:28:21.327Z,26.58
2022-11-22T01:30:50.976Z,29.95
2022-11-22T01:33:17.351Z,28.98
2022-11-22T01:35:43.740Z,30.63
2022-11-22T01:38:10.422Z,31.40
2022-11-22T01:40:36.786Z,29.83
2022-11-22T01:43:04.262Z,31.20
2022-11-22T01:45:30.531Z,31.52
2022-11-22T01:48:18.803Z,33.15
2022-11-22T01:50:49.064Z,29.25
2022-11-22T01:53:35.896Z,28.70
2022-11-22T01:56:04.531Z,29.02
2022-11-22T01:58:33.352Z,31.00
2022-11-22T02:01:00.664Z,28.35
2022-11-22T02:03:29.484Z,29.17
2022-11-22T02:05:56.398Z,30.70
2022-11-22T02:08:25.378Z,27.10
2022-11-22T02:10:55.282Z,27.25
2022-11-22T02:13:23.260Z,27.98
2022-11-22T02:15:52.180Z,27.40
2022-11-22T02:18:18.897Z,27.20
2022-11-22T02:20:45.801Z,27.98
2022-11-22T02:23:31.537Z,30.75
2022-11-22T02:26:00.066Z,27.65
2022-11-22T02:28:32.138Z,29.27
2022-11-22T02:30:58.663Z,28.65
2022-11-22T02:33:25.048Z,27.65
2022-11-22T02:35:51.694Z,27.70
2022-11-22T02:38:22.429Z,26.38
2022-11-22T02:41:00.046Z,28.33
2022-11-22T02:43:41.600Z,29.10
2022-11-22T02:46:11.075Z,26.00
2022-11-22T02:48:41.961Z,28.27
2022-11-22T02:51:08.494Z,24.92
2022-11-22T02:53:34.953Z,21.73
2022-11-22T02:56:01.272Z,19.95
2022-11-22T02:58:27.582Z,21.40
2022-11-22T03:00:53.966Z,18.95
2022-11-22T03:03:20.408Z,19.42
2022-11-22T03:05:46.773Z,16.13
2022-11-22T03:08:13.095Z,17.17
2022-11-22T03:10:39.401Z,17.67
2022-11-22T03:13:05.755Z,15.27
2022-11-22T03:15:32.097Z,17.40
2022-11-22T03:18:03.171Z,15.15
2022-11-22T03:20:30.398Z,14.82
2022-11-22T03:22:57.026Z,15.23
2022-11-22T03:25:23.439Z,14.45
2022-11-22T03:27:49.765Z,13.13
2022-11-22T03:30:16.171Z,14.45
2022-11-22T03:32:42.505Z,14.25
2022-11-22T03:35:09.424Z,13.95
2022-11-22T03:37:36.170Z,14.32
2022-11-22T03:40:02.633Z,13.73
2022-11-22T03:42:28.980Z,12.32
2022-11-22T03:44:55.320Z,13.73
2022-11-22T03:47:21.650Z,12.90
2022-11-22T03:49:47.952Z,12.18
2022-11-22T03:52:14.256Z,12.73
2022-11-22T03:54:40.571Z,12.13
2022-11-22T03:57:06.976Z,11.85
2022-11-22T03:59:33.310Z,11.55
2022-11-22T04:01:59.704Z,11.38
2022-11-22T04:04:26.252Z,11.82
2022-11-22T04:06:52.630Z,12.82
2022-11-22T04:09:19.113Z,11.60
2022-11-22T04:11:45.515Z,13.20
2022-11-22T04:14:31.036Z,12.85
2022-11-22T04:16:57.827Z,13.27
2022-11-22T04:19:24.245Z,12.68
2022-11-22T04:21:50.676Z,13.32
2022-11-22T04:24:35.949Z,12.95
2022-11-22T04:27:02.388Z,13.82
2022-11-22T04:29:29.025Z,13.13
2022-11-22T04:32:14.257Z,13.57
2022-11-22T04:34:40.576Z,13.90
2022-11-22T04:37:07.110Z,14.05
2022-11-22T04:39:33.622Z,13.68
2022-11-22T04:42:18.913Z,13.57
2022-11-22T04:44:46.014Z,17.02
2022-11-22T04:47:54.011Z,15.32
2022-11-22T04:50:38.757Z,14.85
2022-11-22T04:53:05.066Z,15.52
2022-11-22T04:55:31.497Z,14.35
2022-11-22T04:58:00.311Z,15.30
2022-11-22T05:00:30.074Z,14.05
2022-11-22T05:02:57.059Z,14.73
2022-11-22T05:05:24.878Z,14.05
2022-11-22T05:07:51.322Z,14.23
2022-11-22T05:10:22.801Z,14.80
2022-11-22T05:12:52.427Z,14.00
2022-11-22T05:15:18.789Z,13.80
2022-11-22T05:17:45.138Z,14.30
2022-11-22T05:20:11.681Z,15.20
2022-11-22T05:22:56.502Z,15.13
2022-11-22T05:25:25.698Z,13.82
2022-11-22T05:27:55.528Z,14.13
2022-11-22T05:30:22.256Z,16.15
2022-11-22T05:32:48.594Z,15.45
2022-11-22T05:35:15.033Z,14.60
2022-11-22T05:37:41.353Z,15.80
2022-11-22T05:40:08.407Z,16.40
2022-11-22T05:42:35.546Z,16.20
2022-11-22T05:45:01.893Z,15.13
2022-11-22T05:47:28.212Z,16.38
2022-11-22T05:49:54.551Z,16.40
2022-11-22T05:52:20.852Z,18.33
2022-11-22T05:54:47.190Z,17.52
2022-11-22T05:57:13.541Z,18.50
2022-11-22T05:59:43.910Z,18.63
2022-11-22T06:02:10.912Z,17.98
2022-11-22T06:04:37.419Z,18.00
2022-11-22T06:07:09.647Z,18.33
2022-11-22T06:09:36.613Z,16.98
2022-11-22T06:12:03.065Z,18.88
2022-11-22T06:14:29.401Z,17.58
2022-11-22T06:16:55.701Z,19.35
2022-11-22T06:19:22.129Z,17.90
2022-11-22T06:21:48.582Z,15.48
2022-11-22T06:24:15.126Z,16.20
2022-11-22T06:26:41.454Z,14.10
2022-11-22T06:29:07.816Z,14.80
2022-11-22T06:31:41.447Z,16.67
2022-11-22T06:34:07.795Z,17.77
2022-11-22T06:36:34.979Z,17.60
2022-11-22T06:39:04.433Z,16.17
2022-11-22T06:41:36.142Z,15.77
2022-11-22T06:44:09.420Z,16.60
2022-11-22T06:46:36.903Z,19.33
2022-11-22T06:49:06.328Z,15.00
2022-11-22T06:51:33.193Z,16.15
2022-11-22T06:54:00.107Z,16.00
2022-11-22T06:56:37.405Z,15.80
2022-11-22T06:59:05.372Z,15.38
2022-11-22T07:01:32.855Z,15.70
2022-11-22T07:04:00.190Z,16.20
2022-11-22T07:06:35.057Z,15.02
2022-11-22T07:09:03.733Z,15.70
2022-11-22T07:11:32.033Z,15.30
2022-11-22T07:14:07.025Z,14.35
2022-11-22T07:16:35.811Z,15.68
2022-11-22T07:19:02.202Z,15.43
2022-11-22T07:21:28.533Z,15.95
2022-11-22T07:23:55.837Z,14.98
2022-11-22T07:26:25.232Z,15.05
2022-11-22T07:28:52.025Z,15.73
2022-11-22T07:31:18.771Z,14.80
2022-11-22T07:33:45.717Z,16.27
2022-11-22T07:36:17.584Z,15.40
2022-11-22T07:38:45.404Z,14.88
2022-11-22T07:41:11.770Z,15.98
2022-11-22T07:43:38.096Z,14.52
2022-11-22T07:46:07.822Z,16.20
2022-11-22T07:48:34.539Z,14.45
2022-11-22T07:51:07.638Z,16.40
2022-11-22T07:53:35.240Z,15.27
2022-11-22T07:56:05.246Z,14.20
2022-11-22T07:58:32.527Z,15.27
2022-11-22T08:01:03.831Z,15.82
2022-11-22T08:03:30.299Z,14.43
2022-11-22T08:06:04.595Z,15.02
2022-11-22T08:08:31.356Z,14.57
2022-11-22T08:10:57.682Z,14.63
2022-11-22T08:13:27.847Z,14.18
2022-11-22T08:15:55.547Z,15.00
2022-11-22T08:18:23.961Z,12.98
2022-11-22T08:20:50.266Z,12.52
2022-11-22T08:23:16.590Z,12.27
2022-11-22T08:25:42.960Z,12.60
2022-11-22T08:28:09.315Z,12.57
2022-11-22T08:30:35.659Z,13.10
2022-11-22T08:33:01.996Z,13.35
2022-11-22T08:35:28.983Z,12.75
2022-11-22T08:37:57.109Z,14.10
2022-11-22T08:40:23.451Z,13.40
2022-11-22T08:42:49.852Z,11.68
2022-11-22T08:45:16.816Z,11.43
2022-11-22T08:47:47.127Z,11.00
2022-11-22T08:50:13.495Z,10.95
2022-11-22T08:52:39.812Z,10.05
2022-11-22T08:55:06.742Z,9.50
2022-11-22T08:57:33.069Z,10.38
2022-11-22T08:59:59.399Z,10.23
2022-11-22T09:02:26.080Z,10.88
2022-11-22T09:04:52.855Z,9.30
2022-11-22T09:10:07.970Z,9.32
2022-11-22T09:12:34.485Z,8.90
2022-11-22T09:15:00.799Z,8.43
2022-11-22T09:17:27.118Z,8.20
2022-11-22T09:19:53.452Z,7.88
2022-11-22T09:22:22.804Z,9.77
2022-11-22T09:24:51.764Z,7.88
2022-11-22T09:27:18.080Z,7.70
2022-11-22T09:29:44.690Z,7.32
2022-11-22T09:32:11.295Z,8.05
2022-11-22T09:34:38.022Z,8.88
2022-11-22T09:37:04.943Z,8.38
2022-11-22T09:39:31.517Z,8.63
2022-11-22T09:42:22.894Z,7.63
2022-11-22T09:45:16.985Z,7.28
2022-11-22T09:47:55.297Z,7.07
2022-11-22T09:50:27.663Z,6.55
2022-11-22T09:53:00.645Z,6.93
2022-11-22T09:55:38.027Z,6.97
2022-11-22T09:58:30.732Z,6.47
2022-11-22T10:01:18.223Z,6.63
2022-11-22T10:03:50.773Z,5.93
2022-11-22T10:06:23.817Z,5.70
2022-11-22T10:09:03.014Z,6.45
2022-11-22T10:11:36.841Z,6.80
2022-11-22T10:14:14.694Z,7.43
2022-11-22T10:16:55.630Z,7.60
2022-11-22T10:19:50.417Z,8.25
2022-11-22T10:22:16.982Z,9.10
2022-11-22T10:24:43.779Z,8.25
2022-11-22T10:27:16.183Z,7.72
2022-11-22T10:29:45.332Z,7.53
2022-11-22T10:32:20.316Z,7.53
2022-11-22T10:35:04.953Z,6.93
2022-11-22T10:40:20.846Z,5.45
2022-11-22T10:43:11.944Z,5.50
2022-11-22T10:45:49.759Z,5.07
2022-11-22T10:48:49.176Z,4.82
2022-11-22T10:51:23.528Z,4.60
2022-11-22T10:56:34.848Z,4.47
2022-11-22T10:59:15.237Z,4.72
2022-11-22T11:01:58.642Z,4.75
2022-11-22T11:04:31.113Z,5.13
2022-11-22T11:07:16.202Z,5.22
2022-11-22T11:12:45.136Z,5.57
2022-11-22T11:15:18.161Z,5.90
2022-11-22T11:17:50.021Z,5.50
2022-11-22T11:20:24.542Z,5.38
2022-11-22T11:23:13.617Z,5.03
2022-11-22T11:25:43.311Z,4.93
2022-11-22T11:28:20.922Z,4.63
2022-11-22T11:31:01.762Z,4.85
2022-11-22T11:33:34.845Z,4.55
2022-11-22T11:36:17.317Z,5.13
2022-11-22T11:38:43.628Z,5.00
2022-11-22T11:41:29.061Z,5.15
2022-11-22T11:44:04.075Z,5.07
2022-11-22T11:46:36.573Z,5.07
2022-11-22T11:49:10.667Z,5.25
2022-11-22T11:51:42.809Z,5.03
2022-11-22T11:54:20.490Z,5.30
2022-11-22T11:56:59.281Z,5.32
2022-11-22T11:59:37.742Z,4.97
2022-11-22T12:02:43.153Z,5.10
2022-11-22T12:05:12.602Z,4.90
2022-11-22T12:07:43.648Z,4.90
2022-11-22T12:10:36.205Z,5.28
2022-11-22T12:13:21.418Z,5.03
2022-11-22T12:16:09.273Z,5.50
2022-11-22T12:18:59.540Z,4.63
2022-11-22T12:21:25.814Z,4.75
2022-11-22T12:24:26.603Z,5.03
2022-11-22T12:26:46.965Z,5.72
2022-11-22T12:29:15.386Z,5.18
2022-11-22T12:32:04.710Z,5.22
2022-11-22T12:34:57.011Z,5.60
2022-11-22T12:37:44.069Z,4.82
2022-11-22T12:40:28.423Z,5.40
2022-11-22T12:43:03.645Z,5.28
2022-11-22T12:45:35.699Z,6.18
2022-11-22T12:48:07.131Z,5.25
2022-11-22T12:50:41.403Z,5.63
2022-11-22T12:55:58.205Z,4.60
2022-11-22T12:58:32.256Z,5.30
2022-11-22T13:01:24.569Z,5.20
2022-11-22T13:03:57.921Z,5.35
2022-11-22T13:06:28.064Z,5.15
2022-11-22T13:09:06.941Z,5.43
2022-11-22T13:11:39.508Z,5.05
2022-11-22T13:14:30.589Z,5.20
2022-11-22T13:16:58.542Z,5.78
2022-11-22T13:19:26.989Z,5.80
2022-11-22T13:22:15.220Z,5.32
2022-11-22T13:24:53.886Z,5.43
2022-11-22T13:27:32.396Z,5.63
2022-11-22T13:30:01.533Z,5.05
2022-11-22T13:32:35.931Z,5.78
2022-11-22T13:35:04.704Z,5.88
2022-11-22T13:37:36.533Z,5.40
2022-11-22T13:40:21.470Z,5.25
2022-11-22T13:42:47.841Z,5.32
2022-11-22T13:45:24.100Z,5.22
2022-11-22T13:47:51.129Z,5.00
2022-11-22T13:50:36.292Z,4.95
2022-11-22T13:53:23.605Z,5.07
2022-11-22T13:55:50.536Z,5.05
2022-11-22T13:58:26.483Z,5.30
2022-11-22T14:00:55.791Z,5.50
2022-11-22T14:03:34.867Z,5.82
2022-11-22T14:06:16.030Z,5.80
2022-11-22T14:08:43.833Z,4.80
2022-11-22T14:11:26.584Z,5.47
2022-11-22T14:14:03.359Z,5.32
2022-11-22T14:16:43.270Z,5.53
2022-11-22T14:19:45.341Z,6.05
2022-11-22T14:22:33.325Z,4.90
2022-11-22T14:25:17.497Z,5.20
2022-11-22T14:27:56.470Z,5.90
2022-11-22T14:30:40.435Z,6.10
2022-11-22T14:33:17.063Z,6.20
2022-11-22T14:36:09.431Z,6.97
2022-11-22T14:38:45.271Z,6.07
2022-11-22T14:41:39.670Z,6.07
2022-11-22T14:44:17.934Z,5.70
2022-11-22T14:47:11.825Z,5.35
2022-11-22T14:49:49.563Z,5.32
2022-11-22T14:52:24.255Z,4.88
2022-11-22T14:54:56.237Z,5.32
2022-11-22T14:57:26.238Z,5.35
2022-11-22T15:00:08.948Z,5.28
2022-11-22T15:02:53.086Z,4.82
2022-11-22T15:09:15.782Z,5.20
2022-11-22T15:12:24.449Z,4.85
2022-11-22T15:59:41.335Z,12.77
2022-11-22T16:02:16.094Z,14.57
2022-11-22T16:06:04.368Z,15.63
2022-11-22T16:07:47.276Z,14.70
2022-11-22T16:10:24.370Z,16.13
2022-11-22T16:12:52.413Z,14.02
2022-11-22T16:15:36.116Z,13.50
2022-11-22T16:18:16.668Z,13.27
2022-11-22T16:20:58.975Z,13.05
2022-11-22T16:23:27.047Z,12.40
2022-11-22T16:25:57.120Z,13.30
2022-11-22T16:28:30.808Z,12.18
2022-11-22T16:31:00.248Z,11.65
2022-11-22T16:33:27.138Z,10.43
2022-11-22T16:35:55.013Z,10.95
2022-11-22T16:38:22.389Z,11.13
2022-11-22T16:40:48.994Z,10.07
2022-11-22T16:43:19.483Z,10.90
2022-11-22T16:45:45.870Z,12.90
2022-11-22T16:48:31.909Z,11.63
2022-11-22T16:51:04.790Z,12.15
2022-11-22T16:53:42.531Z,11.52
2022-11-22T16:56:24.086Z,11.32
2022-11-22T16:58:52.011Z,12.85
2022-11-22T17:01:22.227Z,12.68
2022-11-22T17:03:51.833Z,13.32
2022-11-22T17:06:21.336Z,11.82
2022-11-22T17:08:49.602Z,11.00
2022-11-22T17:11:24.021Z,12.43
2022-11-22T17:13:50.738Z,10.45
2022-11-22T17:16:19.906Z,12.05
2022-11-22T17:18:47.998Z,12.35
2022-11-22T17:21:31.307Z,12.05
2022-11-22T17:24:02.798Z,11.10
2022-11-22T17:26:29.496Z,12.60
2022-11-22T17:28:56.236Z,12.25
2022-11-22T17:31:23.175Z,11.75
2022-11-22T17:33:51.340Z,10.90
2022-11-22T17:36:34.798Z,14.60
2022-11-22T17:39:06.584Z,10.77
2022-11-22T17:41:33.660Z,11.80
2022-11-22T17:44:01.178Z,13.43
2022-11-22T17:46:29.458Z,12.80
2022-11-22T17:48:58.726Z,12.00
2022-11-22T17:51:26.766Z,12.52
2022-11-22T17:53:53.831Z,14.30
2022-11-22T17:56:20.772Z,18.15
2022-11-22T17:58:47.575Z,22.40
2022-11-22T18:01:16.245Z,26.95
2022-11-22T18:03:43.080Z,22.73
2022-11-22T18:06:11.667Z,22.48
2022-11-22T18:08:41.384Z,24.80
2022-11-22T18:11:11.757Z,22.70
2022-11-22T18:13:40.027Z,23.77
2022-11-22T18:16:11.951Z,28.55
2022-11-22T18:18:57.533Z,24.15
2022-11-22T18:21:26.032Z,24.23
2022-11-22T18:23:52.748Z,23.85
2022-11-22T18:31:53.465Z,24.20
2022-11-22T18:34:21.048Z,26.33
2022-11-22T18:36:57.677Z,25.95
2022-11-22T18:39:30.904Z,23.75
2022-11-22T18:41:57.664Z,24.13
2022-11-22T18:44:24.018Z,22.80
2022-11-22T18:46:50.614Z,22.65
2022-11-22T18:49:17.124Z,19.58
2022-11-22T18:51:43.719Z,18.67
2022-11-22T18:54:10.617Z,18.60
2022-11-22T18:56:39.857Z,17.17
2022-11-22T18:59:07.897Z,17.73
2022-11-22T19:01:34.827Z,16.80
2022-11-22T19:04:03.088Z,16.02
2022-11-22T19:06:30.427Z,15.23
2022-11-22T19:08:57.257Z,14.45
2022-11-22T19:11:23.640Z,14.15
2022-11-22T19:13:50.103Z,13.85
2022-11-22T19:16:22.018Z,13.82
2022-11-22T19:18:51.867Z,14.23
2022-11-22T19:21:21.218Z,13.55
2022-11-22T19:23:49.539Z,13.57
2022-11-22T19:26:20.513Z,14.32
2022-11-22T19:28:48.557Z,16.10
2022-11-22T19:31:19.998Z,13.98
2022-11-22T19:33:46.841Z,17.35
2022-11-22T19:36:18.186Z,20.75
2022-11-22T19:38:45.529Z,21.27
2022-11-22T19:41:14.062Z,21.98
2022-11-22T19:43:40.623Z,26.48
2022-11-22T19:46:08.641Z,23.30
2022-11-22T19:48:40.063Z,24.35
2022-11-22T19:51:16.513Z,18.80
2022-11-22T19:53:43.209Z,21.92
2022-11-22T19:56:14.957Z,22.77
2022-11-22T19:58:42.656Z,21.15
2022-11-22T20:01:21.764Z,18.60
2022-11-22T20:03:52.741Z,19.45
2022-11-22T20:06:19.515Z,17.90
2022-11-22T20:08:46.178Z,18.67
2022-11-22T20:11:14.624Z,18.58
2022-11-22T20:13:43.397Z,19.00
2022-11-22T20:16:27.533Z,19.65
2022-11-22T20:18:54.654Z,18.80
2022-11-22T20:21:22.488Z,18.27
2022-11-22T20:23:52.377Z,22.02
2022-11-22T20:26:36.951Z,17.13
2022-11-22T20:31:35.949Z,15.05
2022-11-22T20:34:02.510Z,18.52
2022-11-22T20:36:31.381Z,19.85
2022-11-22T20:38:58.843Z,19.63
2022-11-22T20:41:28.152Z,20.40
2022-11-22T20:43:56.621Z,18.48
2022-11-22T20:46:25.592Z,18.40
2022-11-22T20:48:53.157Z,17.63
2022-11-22T20:51:22.940Z,17.55
2022-11-22T20:53:49.804Z,16.73
2022-11-22T20:56:17.040Z,17.52
2022-11-22T20:58:44.135Z,17.95
2022-11-22T21:01:16.384Z,17.67
2022-11-22T21:03:42.981Z,18.50
2022-11-22T21:06:11.414Z,18.98
2022-11-22T21:08:38.218Z,18.85
2022-11-22T21:11:07.046Z,18.98
2022-11-22T21:13:34.307Z,20.60
2022-11-22T21:16:20.654Z,21.75
2022-11-22T21:18:51.408Z,19.52
2022-11-22T21:21:22.540Z,17.85
2022-11-22T21:23:54.426Z,18.05
2022-11-22T21:26:22.182Z,15.57
2022-11-22T21:28:48.913Z,13.88
2022-11-22T21:31:15.628Z,11.30
2022-11-22T21:33:42.611Z,10.68
2022-11-22T21:36:09.568Z,10.65
2022-11-22T21:38:38.225Z,9.68
2022-11-22T21:41:37.745Z,12.10
2022-11-22T21:43:55.697Z,11.93
2022-11-22T21:46:25.972Z,12.40
2022-11-22T21:48:52.481Z,15.85
2022-11-22T21:51:18.887Z,12.20
2022-11-22T21:53:45.418Z,12.68
2022-11-22T21:56:11.835Z,13.63
2022-11-22T21:58:38.202Z,13.75
2022-11-22T22:01:13.591Z,13.43
2022-11-22T22:03:40.599Z,14.27
2022-11-22T22:06:07.544Z,13.20
2022-11-22T22:08:34.239Z,13.88
2022-11-22T22:11:02.418Z,13.10
2022-11-22T22:13:30.651Z,12.85
2022-11-22T22:15:58.903Z,13.98
2022-11-22T22:18:33.549Z,15.13
2022-11-22T22:21:02.672Z,13.57
2022-11-22T22:23:29.209Z,13.95
2022-11-22T22:26:04.343Z,14.50
2022-11-22T22:28:33.819Z,14.52
2022-11-22T22:31:12.262Z,13.25
2022-11-22T22:33:40.856Z,14.00
2022-11-22T22:36:09.485Z,13.82
2022-11-22T22:38:36.156Z,14.65
2022-11-22T22:41:03.999Z,14.98
2022-11-22T22:43:35.681Z,16.27
2022-11-22T22:46:13.748Z,14.90
2022-11-22T22:48:41.137Z,15.25
2022-11-22T22:51:19.570Z,14.60
2022-11-22T22:53:47.185Z,13.32
2022-11-22T22:56:15.214Z,13.75
2022-11-22T22:58:41.969Z,12.70
2022-11-22T23:01:12.725Z,12.45
2022-11-22T23:03:39.511Z,12.30
2022-11-22T23:06:11.323Z,12.30
2022-11-22T23:08:39.314Z,12.45
2022-11-22T23:11:08.332Z,12.88
2022-11-22T23:13:36.910Z,12.55
2022-11-22T23:16:08.749Z,13.18
2022-11-22T23:18:38.782Z,14.27
2022-11-22T23:21:07.301Z,17.00
2022-11-22T23:23:33.804Z,17.88
2022-11-22T23:26:09.618Z,19.65
2022-11-22T23:28:36.463Z,15.25
2022-11-22T23:31:11.635Z,16.33
2022-11-22T23:33:40.998Z,18.60
2022-11-22T23:36:10.397Z,16.35
2022-11-22T23:38:37.513Z,16.13
2022-11-22T23:41:04.289Z,17.95
2022-11-22T23:43:30.990Z,14.68
2022-11-22T23:45:58.749Z,16.60
2022-11-22T23:48:25.961Z,17.27
2022-11-22T23:50:52.394Z,16.73
2022-11-22T23:53:19.065Z,17.95
2022-11-22T23:55:45.480Z,18.38
2022-11-22T23:58:11.887Z,19.23
